createdAt,value
2023-05-10T00:00:16.393Z,19503.8457
2023-05-10T00:01:17.560Z,19506.5391
2023-05-10T00:02:19.022Z,19506.5391
2023-05-10T00:03:20.435Z,19506.3848
2023-05-10T00:04:21.912Z,19504.1543
2023-05-10T00:05:23.276Z,19503.2305
2023-05-10T00:06:25.295Z,19500.6914
2023-05-10T00:07:26.094Z,19503.4609
2023-05-10T00:08:27.552Z,19501.4609
2023-05-10T00:09:28.925Z,19504.6914
2023-05-10T00:10:30.366Z,19504.3086
2023-05-10T00:11:31.824Z,19505.6152
2023-05-10T00:12:33.201Z,19507.1543
2023-05-10T00:13:34.690Z,19508.2305
2023-05-10T00:14:36.034Z,19504.6914
2023-05-10T00:15:37.517Z,19514.1543
2023-05-10T00:16:38.972Z,19511.6152
2023-05-10T00:17:40.421Z,19505.5391
2023-05-10T00:18:41.631Z,19509.0762
2023-05-10T00:19:43.176Z,19510.4609
2023-05-10T00:20:44.589Z,19508.4609
2023-05-10T00:21:46.079Z,19513.6152
2023-05-10T00:22:47.486Z,19517.3848
2023-05-10T00:23:48.943Z,19511.6914
2023-05-10T00:24:50.321Z,19509.0762
2023-05-10T00:25:52.373Z,19511.1543
2023-05-10T00:26:53.140Z,19514.3848
2023-05-10T00:27:54.613Z,19520.2305
2023-05-10T00:28:55.940Z,19521.1543
2023-05-10T00:29:57.418Z,19515.2305
2023-05-10T00:30:58.849Z,19511.3848
2023-05-10T00:32:00.347Z,19510.5391
2023-05-10T00:33:01.744Z,19515.6152
2023-05-10T00:34:03.197Z,19514.3848
2023-05-10T00:35:04.600Z,19524.6914
2023-05-10T00:36:05.966Z,19527.7695
2023-05-10T00:37:07.385Z,19517.9238
2023-05-10T00:38:08.821Z,19512.0000
2023-05-10T00:39:10.163Z,19514.0000
2023-05-10T00:40:11.637Z,19513.0000
2023-05-10T00:41:13.821Z,19513.9238
2023-05-10T00:42:14.539Z,19515.4609
2023-05-10T00:43:15.873Z,19518.4609
2023-05-10T00:44:17.345Z,19513.3848
2023-05-10T00:45:18.862Z,19510.3848
2023-05-10T00:46:20.349Z,19508.5391
2023-05-10T00:47:21.700Z,19515.0762
2023-05-10T00:48:23.195Z,19523.1543
2023-05-10T00:49:24.548Z,19524.1543
2023-05-10T00:50:25.893Z,19516.7695
2023-05-10T00:51:27.378Z,19513.2305
2023-05-10T00:52:28.848Z,19510.5391
2023-05-10T00:53:30.190Z,19512.3086
2023-05-10T00:54:31.635Z,19511.5391
2023-05-10T00:55:33.033Z,19524.6914
2023-05-10T00:56:34.526Z,19526.2305
2023-05-10T00:57:35.887Z,19518.8457
2023-05-10T00:58:37.200Z,19516.2305
2023-05-10T00:59:38.711Z,19520.1543
2023-05-10T01:00:40.150Z,19516.2305
2023-05-10T01:01:41.601Z,19523.1543
2023-05-10T01:02:43.071Z,19518.4609
2023-05-10T01:03:44.399Z,19519.0000
2023-05-10T01:04:45.851Z,19520.6914
2023-05-10T01:05:47.242Z,19512.3848
2023-05-10T01:06:48.785Z,19512.6152
2023-05-10T01:07:50.124Z,19516.0762
2023-05-10T01:08:51.555Z,19515.5391
2023-05-10T01:09:52.917Z,19515.6914
2023-05-10T01:10:54.373Z,19522.4609
2023-05-10T01:11:55.815Z,19524.5391
2023-05-10T01:12:57.340Z,19518.8457
2023-05-10T01:13:58.704Z,19514.7695
2023-05-10T01:15:00.162Z,19513.0000
2023-05-10T01:16:01.504Z,19515.8457
2023-05-10T01:17:02.913Z,19518.7695
2023-05-10T01:18:04.317Z,19523.3848
2023-05-10T01:19:05.763Z,19529.3086
2023-05-10T01:20:07.144Z,19523.2305
2023-05-10T01:21:08.592Z,19518.0762
2023-05-10T01:22:09.993Z,19515.8457
2023-05-10T01:23:12.366Z,19514.7695
2023-05-10T01:24:12.837Z,19517.8457
2023-05-10T01:25:14.292Z,19519.2305
2023-05-10T01:26:15.720Z,19528.8457
2023-05-10T01:27:17.165Z,19521.1543
2023-05-10T01:28:18.543Z,19517.2305
2023-05-10T01:29:19.976Z,19517.0762
2023-05-10T01:30:22.187Z,19514.7695
2023-05-10T01:31:22.901Z,19519.2305
2023-05-10T01:32:24.281Z,19522.0000
2023-05-10T01:33:25.600Z,19526.3086
2023-05-10T01:34:27.062Z,19531.2305
2023-05-10T01:35:28.546Z,19523.2305
2023-05-10T01:36:29.962Z,19515.1543
2023-05-10T01:37:31.395Z,19521.3848
2023-05-10T01:38:32.762Z,19513.7695
2023-05-10T01:39:34.224Z,19519.4609
2023-05-10T01:40:35.598Z,19524.6914
2023-05-10T01:41:37.037Z,19527.0762
2023-05-10T01:42:38.477Z,19527.3848
2023-05-10T01:43:39.944Z,19520.8457
2023-05-10T01:44:41.290Z,19516.2305
2023-05-10T01:45:42.751Z,19517.3848
2023-05-10T01:46:44.157Z,19514.6914
2023-05-10T01:47:45.681Z,19523.0762
2023-05-10T01:48:47.043Z,19522.1543
2023-05-10T01:49:48.491Z,19529.3086
2023-05-10T01:50:49.755Z,19528.1543
2023-05-10T01:51:51.375Z,19523.3086
2023-05-10T01:52:53.327Z,19513.8457
2023-05-10T01:53:54.140Z,19516.7695
2023-05-10T01:54:55.503Z,19523.6152
2023-05-10T01:55:57.023Z,19522.0000
2023-05-10T01:56:58.436Z,19528.5391
2023-05-10T01:57:59.760Z,19527.0000
2023-05-10T01:59:01.152Z,19529.1543
2023-05-10T02:00:02.678Z,19527.1543
2023-05-10T02:01:04.065Z,19522.1543
2023-05-10T02:02:05.525Z,19517.2305
2023-05-10T02:03:07.026Z,19516.9238
2023-05-10T02:04:08.468Z,19521.8457
2023-05-10T02:05:09.686Z,19523.0000
2023-05-10T02:06:11.284Z,19527.7695
2023-05-10T02:07:12.584Z,19529.7695
2023-05-10T02:08:14.062Z,19522.6152
2023-05-10T02:09:15.484Z,19515.8457
2023-05-10T02:10:17.098Z,19512.4609
2023-05-10T02:11:18.192Z,19514.4609
2023-05-10T02:12:19.726Z,19519.7695
2023-05-10T02:13:21.251Z,19525.1543
2023-05-10T02:14:22.577Z,19523.3086
2023-05-10T02:15:24.028Z,19531.3086
2023-05-10T02:16:25.452Z,19527.0000
2023-05-10T02:17:26.836Z,19518.5391
2023-05-10T02:18:28.269Z,19520.6152
2023-05-10T02:19:29.782Z,19517.5391
2023-05-10T02:20:31.136Z,19518.6152
2023-05-10T02:21:32.555Z,19522.7695
2023-05-10T02:22:33.886Z,19527.0000
2023-05-10T02:23:35.381Z,19529.7695
2023-05-10T02:24:36.780Z,19524.6152
2023-05-10T02:25:38.092Z,19516.0000
2023-05-10T02:26:39.616Z,19512.0762
2023-05-10T02:27:41.115Z,19517.6914
2023-05-10T02:28:42.428Z,19514.4609
2023-05-10T02:29:43.936Z,19522.3086
2023-05-10T02:30:45.294Z,19528.1543
2023-05-10T02:31:46.741Z,19530.9238
2023-05-10T02:32:48.139Z,19517.6914
2023-05-10T02:33:49.582Z,19517.6152
2023-05-10T02:34:50.920Z,19513.6152
2023-05-10T02:35:52.407Z,19515.6152
2023-05-10T02:36:53.810Z,19519.0000
2023-05-10T02:37:55.279Z,19519.9238
2023-05-10T02:38:56.628Z,19515.0762
2023-05-10T02:39:58.130Z,19525.6914
2023-05-10T02:40:59.480Z,19524.6152
2023-05-10T02:42:00.830Z,19520.2305
2023-05-10T02:43:02.405Z,19516.4609
2023-05-10T02:44:03.750Z,19512.7695
2023-05-10T02:45:05.203Z,19511.3848
2023-05-10T02:46:06.631Z,19516.6152
2023-05-10T02:47:07.972Z,19517.3086
2023-05-10T02:48:09.538Z,19518.7695
2023-05-10T02:49:10.792Z,19520.8457
2023-05-10T02:50:12.307Z,19524.0000
2023-05-10T02:51:14.389Z,19520.2305
2023-05-10T02:52:15.157Z,19516.4609
2023-05-10T02:53:16.514Z,19510.4609
2023-05-10T02:54:17.888Z,19515.2305
2023-05-10T02:55:19.416Z,19516.6152
2023-05-10T02:56:20.916Z,19517.4609
2023-05-10T02:57:22.276Z,19514.8457
2023-05-10T02:58:23.737Z,19527.0000
2023-05-10T02:59:25.074Z,19525.9238
2023-05-10T03:00:26.638Z,19519.6152
2023-05-10T03:01:27.990Z,19513.7695
2023-05-10T03:02:29.346Z,19509.0762
2023-05-10T03:03:30.706Z,19505.2305
2023-05-10T03:04:32.294Z,19517.3848
2023-05-10T03:05:33.649Z,19512.0000
2023-05-10T03:06:35.027Z,19518.2305
2023-05-10T03:07:36.424Z,19521.4609
2023-05-10T03:08:37.963Z,19525.2305
2023-05-10T03:09:39.282Z,19523.8457
2023-05-10T03:10:40.648Z,19518.0000
2023-05-10T03:11:42.128Z,19510.6914
2023-05-10T03:12:43.595Z,19510.2305
2023-05-10T03:13:44.934Z,19515.0762
2023-05-10T03:14:46.388Z,19515.3848
2023-05-10T03:15:48.389Z,19520.6152
2023-05-10T03:16:49.346Z,19521.4609
2023-05-10T03:17:50.727Z,19523.6152
2023-05-10T03:18:52.157Z,19516.8457
2023-05-10T03:19:53.438Z,19516.2305
2023-05-10T03:20:54.988Z,19515.6152
2023-05-10T03:21:56.377Z,19516.4609
2023-05-10T03:22:57.817Z,19514.6152
2023-05-10T03:23:59.178Z,19515.5391
2023-05-10T03:25:00.555Z,19521.5391
2023-05-10T03:26:02.070Z,19522.4609
2023-05-10T03:27:03.519Z,19523.3848
2023-05-10T03:28:04.925Z,19514.2305
2023-05-10T03:29:06.322Z,19513.8457
2023-05-10T03:30:07.715Z,19512.8457
2023-05-10T03:31:09.139Z,19516.0762
2023-05-10T03:32:10.658Z,19514.3086
2023-05-10T03:33:12.068Z,19516.5391
2023-05-10T03:34:13.388Z,19519.6914
2023-05-10T03:35:14.858Z,19531.4609
2023-05-10T03:36:16.235Z,19526.6152
2023-05-10T03:37:17.813Z,19519.8457
2023-05-10T03:38:19.177Z,19512.9238
2023-05-10T03:39:20.581Z,19512.6152
2023-05-10T03:40:21.930Z,19511.4609
2023-05-10T03:41:23.435Z,19515.1543
2023-05-10T03:42:24.812Z,19518.7695
2023-05-10T03:43:26.243Z,19516.3086
2023-05-10T03:44:27.628Z,19523.4609
2023-05-10T03:45:28.938Z,19523.1543
2023-05-10T03:46:30.492Z,19519.3086
2023-05-10T03:47:31.976Z,19512.8457
2023-05-10T03:48:33.326Z,19510.9238
2023-05-10T03:49:34.780Z,19515.4609
2023-05-10T03:50:36.134Z,19514.8457
2023-05-10T03:51:37.567Z,19518.8457
2023-05-10T03:52:39.936Z,19523.3086
2023-05-10T03:53:40.378Z,19525.7695
2023-05-10T03:54:41.844Z,19522.2305
2023-05-10T03:55:43.272Z,19518.3086
2023-05-10T03:56:44.671Z,19509.0000
2023-05-10T03:57:46.161Z,19517.3848
2023-05-10T03:58:47.525Z,19512.3848
2023-05-10T03:59:48.941Z,19518.8457
2023-05-10T04:00:50.326Z,19528.4609
2023-05-10T04:01:51.814Z,19518.7695
2023-05-10T04:02:53.314Z,19516.6152
2023-05-10T04:03:54.750Z,19517.4609
2023-05-10T04:04:56.005Z,19516.6914
2023-05-10T04:05:57.532Z,19512.8457
2023-05-10T04:06:58.910Z,19514.2305
2023-05-10T04:08:00.402Z,19516.8457
2023-05-10T04:09:02.375Z,19519.3086
2023-05-10T04:10:03.214Z,19525.0762
2023-05-10T04:11:04.492Z,19518.9238
2023-05-10T04:12:06.491Z,19511.3086
2023-05-10T04:13:07.699Z,19512.0000
2023-05-10T04:14:08.994Z,19515.1543
2023-05-10T04:15:10.283Z,19516.0000
2023-05-10T04:16:11.823Z,19522.6914
2023-05-10T04:17:13.169Z,19522.6914
2023-05-10T04:18:14.621Z,19524.6914
2023-05-10T04:19:16.028Z,19520.4609
2023-05-10T04:20:17.625Z,19512.6914
2023-05-10T04:21:18.825Z,19511.8457
2023-05-10T04:22:20.294Z,19514.2305
2023-05-10T04:23:21.765Z,19517.0762
2023-05-10T04:24:23.155Z,19518.9238
2023-05-10T04:25:24.588Z,19526.6914
2023-05-10T04:26:25.923Z,19521.0762
2023-05-10T04:27:27.372Z,19524.8457
2023-05-10T04:28:28.773Z,19519.6914
2023-05-10T04:29:30.201Z,19515.4609
2023-05-10T04:30:31.676Z,19516.0762
2023-05-10T04:31:33.133Z,19515.5391
2023-05-10T04:32:35.040Z,19515.3848
2023-05-10T04:33:35.925Z,19515.4609
2023-05-10T04:34:37.382Z,19525.6914
2023-05-10T04:35:38.850Z,19521.8457
2023-05-10T04:36:40.224Z,19516.3086
2023-05-10T04:37:41.673Z,19509.6914
2023-05-10T04:38:43.025Z,19515.6914
2023-05-10T04:39:45.459Z,19515.5391
2023-05-10T04:40:45.899Z,19518.3086
2023-05-10T04:41:47.327Z,19517.7695
2023-05-10T04:42:48.745Z,19518.1543
2023-05-10T04:43:50.178Z,19520.0762
2023-05-10T04:44:51.586Z,19511.6914
2023-05-10T04:45:53.036Z,19510.7695
2023-05-10T04:46:54.511Z,19516.0762
2023-05-10T04:47:56.001Z,19513.8457
2023-05-10T04:48:57.334Z,19512.5391
2023-05-10T04:49:58.826Z,19516.6914
2023-05-10T04:51:00.142Z,19523.4609
2023-05-10T04:52:01.671Z,19524.7695
2023-05-10T04:53:03.071Z,19512.4609
2023-05-10T04:54:06.626Z,19512.1543
2023-05-10T04:55:06.907Z,19507.5391
2023-05-10T04:56:07.266Z,19515.8457
2023-05-10T04:57:08.670Z,19514.3848
2023-05-10T04:58:10.128Z,19522.0762
2023-05-10T04:59:11.583Z,19523.9238
2023-05-10T05:00:12.999Z,19520.2305
2023-05-10T05:01:14.383Z,19516.0000
2023-05-10T05:02:15.890Z,19513.2305
2023-05-10T05:03:17.266Z,19515.5391
2023-05-10T05:04:18.618Z,19517.1543
2023-05-10T05:05:20.068Z,19518.2305
2023-05-10T05:06:21.526Z,19519.1543
2023-05-10T05:07:22.845Z,19523.3848
2023-05-10T05:08:24.385Z,19512.6152
2023-05-10T05:09:25.728Z,19509.0000
2023-05-10T05:10:27.134Z,19511.3086
2023-05-10T05:11:29.465Z,19512.6152
2023-05-10T05:12:30.034Z,19513.9238
2023-05-10T05:13:31.458Z,19516.8457
2023-05-10T05:14:32.849Z,19523.7695
2023-05-10T05:15:34.265Z,19519.5391
2023-05-10T05:16:35.865Z,19513.6152
2023-05-10T05:17:37.219Z,19511.5391
2023-05-10T05:18:38.584Z,19509.4609
2023-05-10T05:19:39.990Z,19514.9238
2023-05-10T05:20:42.557Z,19507.6914
2023-05-10T05:21:42.867Z,19514.0762
2023-05-10T05:22:44.298Z,19518.7695
2023-05-10T05:23:45.678Z,19512.6914
2023-05-10T05:24:47.198Z,19510.0000
2023-05-10T05:25:48.525Z,19508.9238
2023-05-10T05:26:50.057Z,19515.4609
2023-05-10T05:27:51.423Z,19513.0762
2023-05-10T05:28:52.767Z,19519.0000
2023-05-10T05:29:54.239Z,19520.3086
2023-05-10T05:30:55.859Z,19510.4609
2023-05-10T05:31:57.237Z,19511.4609
2023-05-10T05:32:58.541Z,19512.0762
2023-05-10T05:33:59.956Z,19514.0762
2023-05-10T05:35:01.449Z,19512.9238
2023-05-10T05:36:02.876Z,19513.1543
2023-05-10T05:37:04.252Z,19516.0762
2023-05-10T05:38:05.653Z,19516.3848
2023-05-10T05:39:06.924Z,19514.8457
2023-05-10T05:40:08.373Z,19508.2305
2023-05-10T05:41:09.937Z,19512.9238
2023-05-10T05:42:11.409Z,19509.5391
2023-05-10T05:43:13.230Z,19512.1543
2023-05-10T05:44:14.071Z,19514.9238
2023-05-10T05:45:15.896Z,19514.1543
2023-05-10T05:46:17.033Z,19507.3086
2023-05-10T05:47:18.462Z,19508.0000
2023-05-10T05:48:19.802Z,19511.1543
2023-05-10T05:49:21.264Z,19509.0762
2023-05-10T05:50:22.649Z,19507.8457
2023-05-10T05:51:24.142Z,19511.8457
2023-05-10T05:52:25.602Z,19513.6914
2023-05-10T05:53:26.905Z,19506.2305
2023-05-10T05:54:28.330Z,19506.7695
2023-05-10T05:55:29.687Z,19509.5391
2023-05-10T05:56:31.251Z,19514.3848
2023-05-10T05:57:32.668Z,19505.8457
2023-05-10T05:58:34.189Z,19508.3086
2023-05-10T05:59:35.480Z,19510.6152
2023-05-10T06:00:36.880Z,19514.3086
2023-05-10T06:01:38.371Z,19500.3086
2023-05-10T06:02:39.940Z,19504.3848
2023-05-10T06:03:41.208Z,19510.7695
2023-05-10T06:04:44.689Z,19510.3086
2023-05-10T06:05:44.110Z,19505.3086
2023-05-10T06:06:45.405Z,19497.8457
2023-05-10T06:07:46.852Z,19491.5391
2023-05-10T06:08:48.219Z,19480.2305
2023-05-10T06:09:49.686Z,19475.1543
2023-05-10T06:10:51.096Z,19468.9238
2023-05-10T06:11:52.543Z,19457.9238
2023-05-10T06:12:53.928Z,19461.3086
2023-05-10T06:13:55.253Z,19469.0000
2023-05-10T06:14:56.731Z,19468.3086
2023-05-10T06:15:58.144Z,19463.0762
2023-05-10T06:16:59.626Z,19452.8457
2023-05-10T06:18:01.046Z,19442.0000
2023-05-10T06:19:02.333Z,19429.2305
2023-05-10T06:20:03.856Z,19431.1543
2023-05-10T06:21:05.186Z,19424.7695
2023-05-10T06:22:06.719Z,19421.8457
2023-05-10T06:23:08.043Z,19415.0762
2023-05-10T06:24:09.655Z,19414.1543
2023-05-10T06:25:10.879Z,19411.8457
2023-05-10T06:26:12.309Z,19407.6152
2023-05-10T06:27:13.812Z,19410.7695
2023-05-10T06:28:15.234Z,19406.3086
2023-05-10T06:29:16.609Z,19399.3848
2023-05-10T06:30:18.222Z,19394.0762
2023-05-10T06:31:19.518Z,19384.7695
2023-05-10T06:32:20.920Z,19379.3848
2023-05-10T06:33:22.311Z,19397.3848
2023-05-10T06:34:23.755Z,19397.4609
2023-05-10T06:35:25.159Z,19386.2305
2023-05-10T06:36:26.689Z,19377.7695
2023-05-10T06:37:28.147Z,19373.9238
2023-05-10T06:38:29.641Z,19361.6152
2023-05-10T06:39:30.878Z,19370.2305
2023-05-10T06:40:32.847Z,19384.7695
2023-05-10T06:41:33.689Z,19380.3848
2023-05-10T06:42:35.311Z,19364.2305
2023-05-10T06:43:36.631Z,19355.6914
2023-05-10T06:44:37.922Z,19352.0762
2023-05-10T06:45:39.346Z,19363.0762
2023-05-10T06:46:40.772Z,19375.3086
2023-05-10T06:47:42.255Z,19362.7695
2023-05-10T06:48:43.718Z,19345.8457
2023-05-10T06:49:45.009Z,19339.0000
2023-05-10T06:50:46.534Z,19351.0762
2023-05-10T06:51:47.913Z,19359.6914
2023-05-10T06:52:50.214Z,19354.1543
2023-05-10T06:53:51.142Z,19341.1543
2023-05-10T06:54:52.216Z,19333.9238
2023-05-10T06:55:53.586Z,19352.2305
2023-05-10T06:56:55.057Z,19360.5391
2023-05-10T06:57:56.494Z,19349.4609
2023-05-10T06:58:57.916Z,19331.6914
2023-05-10T06:59:59.286Z,19323.6152
2023-05-10T07:01:00.804Z,19345.0762
2023-05-10T07:02:02.180Z,19354.7695
2023-05-10T07:03:03.644Z,19338.6914
2023-05-10T07:04:04.960Z,19327.0000
2023-05-10T07:05:06.474Z,19330.3086
2023-05-10T07:06:11.356Z,19353.0762
2023-05-10T07:07:09.323Z,19349.9160
2023-05-10T07:08:10.747Z,19337.5391
2023-05-10T07:09:12.213Z,19319.3848
2023-05-10T07:10:13.531Z,19334.5391
2023-05-10T07:11:14.998Z,19362.2305
2023-05-10T07:12:16.729Z,19351.5391
2023-05-10T07:13:17.915Z,19335.4609
2023-05-10T07:14:19.287Z,19322.3086
2023-05-10T07:15:20.763Z,19342.4609
2023-05-10T07:16:22.058Z,19358.2305
2023-05-10T07:17:23.593Z,19345.3086
2023-05-10T07:18:24.926Z,19325.7695
2023-05-10T07:19:26.388Z,19323.6914
2023-05-10T07:20:27.814Z,19359.0762
2023-05-10T07:21:29.293Z,19378.7695
2023-05-10T07:22:30.596Z,19364.1543
2023-05-10T07:23:32.123Z,19355.4609
2023-05-10T07:24:33.456Z,19347.6152
2023-05-10T07:25:34.932Z,19358.0762
2023-05-10T07:26:36.404Z,19390.0762
2023-05-10T07:27:37.743Z,19389.9238
2023-05-10T07:28:39.300Z,19383.0000
2023-05-10T07:29:40.615Z,19370.3848
2023-05-10T07:30:42.089Z,19365.1543
2023-05-10T07:31:43.433Z,19373.1543
2023-05-10T07:32:44.896Z,19399.8457
2023-05-10T07:33:46.283Z,19404.4609
2023-05-10T07:34:47.732Z,19393.9238
2023-05-10T07:35:49.138Z,19387.4609
2023-05-10T07:36:50.571Z,19383.0000
2023-05-10T07:37:51.997Z,19372.0000
2023-05-10T07:38:53.433Z,19383.3848
2023-05-10T07:39:54.922Z,19412.3086
2023-05-10T07:40:56.314Z,19411.9238
2023-05-10T07:41:57.589Z,19404.3848
2023-05-10T07:42:59.162Z,19395.9238
2023-05-10T07:44:00.589Z,19389.8457
2023-05-10T07:45:02.032Z,19382.6914
2023-05-10T07:46:03.501Z,19380.0000
2023-05-10T07:47:04.803Z,19402.0762
2023-05-10T07:48:06.387Z,19417.1543
2023-05-10T07:49:07.585Z,19407.9238
2023-05-10T07:50:09.217Z,19402.3848
2023-05-10T07:51:10.630Z,19396.3848
2023-05-10T07:52:12.051Z,19388.2305
2023-05-10T07:53:13.424Z,19390.5391
2023-05-10T07:54:14.887Z,19389.2305
2023-05-10T07:55:16.533Z,19412.9238
2023-05-10T07:56:17.741Z,19418.4609
2023-05-10T07:57:19.013Z,19411.3848
2023-05-10T07:58:20.498Z,19403.3086
2023-05-10T07:59:21.980Z,19400.3848
2023-05-10T08:00:23.470Z,19391.7695
2023-05-10T08:01:24.819Z,19391.6914
2023-05-10T08:02:26.407Z,19389.0000
2023-05-10T08:03:27.759Z,19412.4609
2023-05-10T08:04:29.372Z,19417.3086
2023-05-10T08:05:30.535Z,19412.2305
2023-05-10T08:06:32.062Z,19404.6152
2023-05-10T08:07:33.399Z,19396.3086
2023-05-10T08:08:34.796Z,19395.7695
2023-05-10T08:09:36.447Z,19385.2305
2023-05-10T08:10:37.708Z,19400.0762
2023-05-10T08:11:39.092Z,19415.8457
2023-05-10T08:12:40.622Z,19418.0762
2023-05-10T08:13:41.825Z,19408.0000
2023-05-10T08:14:43.706Z,19399.7695
2023-05-10T08:15:44.798Z,19396.9238
2023-05-10T08:16:46.244Z,19392.5391
2023-05-10T08:17:47.595Z,19399.7695
2023-05-10T08:18:49.118Z,19420.1543
2023-05-10T08:19:50.416Z,19420.8457
2023-05-10T08:20:51.821Z,19414.7695
2023-05-10T08:21:53.357Z,19406.1543
2023-05-10T08:22:54.823Z,19395.6914
2023-05-10T08:23:56.245Z,19386.5391
2023-05-10T08:24:57.669Z,19391.7695
2023-05-10T08:25:59.034Z,19404.5391
2023-05-10T08:27:00.496Z,19416.0000
2023-05-10T08:28:01.876Z,19413.0000
2023-05-10T08:29:03.291Z,19401.6914
2023-05-10T08:30:04.726Z,19393.2305
2023-05-10T08:31:06.289Z,19377.6152
2023-05-10T08:32:07.623Z,19370.3086
2023-05-10T08:33:08.985Z,19374.1543
2023-05-10T08:34:10.417Z,19394.7695
2023-05-10T08:35:11.841Z,19383.6152
2023-05-10T08:36:13.355Z,19375.8457
2023-05-10T08:37:14.792Z,19366.9238
2023-05-10T08:38:16.098Z,19362.4609
2023-05-10T08:39:29.383Z,19357.6152
2023-05-10T08:40:19.071Z,19355.1660
2023-05-10T08:41:20.440Z,19382.6152
2023-05-10T08:42:22.185Z,19396.4609
2023-05-10T08:43:23.225Z,19390.4609
2023-05-10T08:44:24.689Z,19382.1543
2023-05-10T08:45:26.196Z,19376.6152
2023-05-10T08:46:27.715Z,19374.0000
2023-05-10T08:47:29.053Z,19371.6914
2023-05-10T08:48:30.726Z,19373.3086
2023-05-10T08:49:32.011Z,19385.3086
2023-05-10T08:50:33.432Z,19403.7695
2023-05-10T08:51:34.835Z,19397.4609
2023-05-10T08:52:36.446Z,19395.0000
2023-05-10T08:53:37.695Z,19390.5391
2023-05-10T08:54:39.080Z,19380.1543
2023-05-10T08:55:40.321Z,19379.6914
2023-05-10T08:56:42.055Z,19378.6914
2023-05-10T08:57:43.373Z,19392.7695
2023-05-10T08:58:44.722Z,19411.5391
2023-05-10T08:59:46.221Z,19410.0000
2023-05-10T09:00:48.158Z,19406.6914
2023-05-10T09:01:49.124Z,19401.9238
2023-05-10T09:02:50.689Z,19396.8457
2023-05-10T09:03:51.811Z,19390.8457
2023-05-10T09:04:53.354Z,19388.3086
2023-05-10T09:05:54.729Z,19392.3086
2023-05-10T09:06:56.194Z,19410.6914
2023-05-10T09:07:57.533Z,19416.9238
2023-05-10T09:08:59.291Z,19413.3086
2023-05-10T09:10:00.372Z,19399.0000
2023-05-10T09:11:01.761Z,19398.1543
2023-05-10T09:12:03.305Z,19393.4609
2023-05-10T09:13:04.840Z,19387.7695
2023-05-10T09:14:06.045Z,19400.2305
2023-05-10T09:15:07.460Z,19414.0762
2023-05-10T09:16:20.439Z,19409.2305
2023-05-10T09:17:10.503Z,19399.9160
2023-05-10T09:18:11.857Z,19385.6152
2023-05-10T09:19:13.385Z,19381.9238
2023-05-10T09:20:14.494Z,19383.6914
2023-05-10T09:21:16.217Z,19390.3086
2023-05-10T09:22:17.456Z,19406.6152
2023-05-10T09:23:18.761Z,19411.1543
2023-05-10T09:24:20.348Z,19401.9238
2023-05-10T09:25:21.793Z,19395.0000
2023-05-10T09:26:23.058Z,19388.3086
2023-05-10T09:27:24.776Z,19385.6152
2023-05-10T09:28:26.133Z,19384.0762
2023-05-10T09:29:27.615Z,19395.9238
2023-05-10T09:30:28.786Z,19417.3086
2023-05-10T09:31:30.589Z,19419.0762
2023-05-10T09:32:31.779Z,19404.6152
2023-05-10T09:33:33.402Z,19399.1543
2023-05-10T09:34:34.531Z,19396.3848
2023-05-10T09:35:35.848Z,19387.1543
2023-05-10T09:36:37.707Z,19381.3086
2023-05-10T09:37:38.679Z,19402.0000
2023-05-10T09:38:40.405Z,19411.4609
2023-05-10T09:39:41.631Z,19414.1543
2023-05-10T09:40:43.038Z,19403.4609
2023-05-10T09:41:44.532Z,19393.3848
2023-05-10T09:42:46.231Z,19384.0000
2023-05-10T09:43:47.525Z,19385.5391
2023-05-10T09:44:49.109Z,19386.7695
2023-05-10T09:45:50.174Z,19409.7695
2023-05-10T09:46:51.746Z,19412.8457
2023-05-10T09:47:53.214Z,19402.0762
2023-05-10T09:48:54.503Z,19396.5391
2023-05-10T09:49:55.864Z,19386.2305
2023-05-10T09:50:57.395Z,19382.7695
2023-05-10T09:51:58.822Z,19386.6152
2023-05-10T09:53:00.195Z,19408.4609
2023-05-10T09:54:01.683Z,19405.0000
2023-05-10T09:55:02.993Z,19400.3848
2023-05-10T09:56:04.514Z,19399.6914
2023-05-10T09:57:05.931Z,19395.8457
2023-05-10T09:58:07.360Z,19375.3086
2023-05-10T09:59:08.895Z,19283.0000
2023-05-10T10:00:10.143Z,19219.8457
2023-05-10T10:01:12.015Z,19232.3086
2023-05-10T10:02:13.186Z,19236.3848
2023-05-10T10:03:14.457Z,19235.7695
2023-05-10T10:04:15.916Z,19235.3086
2023-05-10T10:05:17.717Z,19236.1543
2023-05-10T10:06:26.802Z,19241.6914
2023-05-10T10:07:20.180Z,19258.1660
2023-05-10T10:08:22.334Z,19279.7695
2023-05-10T10:09:23.210Z,19287.0000
2023-05-10T10:10:24.336Z,19286.1543
2023-05-10T10:11:25.782Z,19280.5391
2023-05-10T10:12:27.338Z,19280.5391
2023-05-10T10:13:28.900Z,19283.3848
2023-05-10T10:14:30.250Z,19284.3086
2023-05-10T10:15:31.555Z,19293.7695
2023-05-10T10:16:33.023Z,19307.1543
2023-05-10T10:17:34.394Z,19306.6152
2023-05-10T10:18:35.781Z,19298.4609
2023-05-10T10:19:37.604Z,19297.3086
2023-05-10T10:20:38.587Z,19293.9238
2023-05-10T10:21:40.161Z,19290.7695
2023-05-10T10:22:41.494Z,19301.0000
2023-05-10T10:23:43.074Z,19317.4609
2023-05-10T10:24:44.508Z,19325.1543
2023-05-10T10:25:45.814Z,19314.4609
2023-05-10T10:26:47.262Z,19317.1543
2023-05-10T10:27:48.604Z,19314.2305
2023-05-10T10:28:50.323Z,19312.6152
2023-05-10T10:29:51.511Z,19321.0762
2023-05-10T10:30:53.041Z,19338.3848
2023-05-10T10:31:54.297Z,19343.6914
2023-05-10T10:32:55.699Z,19339.2305
2023-05-10T10:33:57.176Z,19335.3848
2023-05-10T10:34:58.738Z,19334.6914
2023-05-10T10:35:59.968Z,19331.7695
2023-05-10T10:37:01.445Z,19335.1543
2023-05-10T10:38:02.859Z,19355.0762
2023-05-10T10:39:04.607Z,19356.6152
2023-05-10T10:40:05.714Z,19350.0000
2023-05-10T10:41:07.176Z,19349.0000
2023-05-10T10:42:08.454Z,19347.9238
2023-05-10T10:43:10.154Z,19347.7695
2023-05-10T10:44:11.735Z,19341.4609
2023-05-10T10:45:12.903Z,19363.0000
2023-05-10T10:46:14.284Z,19371.2305
2023-05-10T10:47:15.625Z,19364.9238
2023-05-10T10:48:17.092Z,19362.3848
2023-05-10T10:49:18.611Z,19357.8457
2023-05-10T10:50:20.035Z,19352.6914
2023-05-10T10:51:21.342Z,19359.6914
2023-05-10T10:52:22.788Z,19378.1543
2023-05-10T10:53:24.281Z,19382.6152
2023-05-10T10:54:25.716Z,19373.4609
2023-05-10T10:55:27.197Z,19363.5391
2023-05-10T10:56:28.480Z,19363.5391
2023-05-10T10:57:29.910Z,19356.8457
2023-05-10T10:58:31.257Z,19363.9238
2023-05-10T10:59:32.734Z,19382.3848
2023-05-10T11:00:34.220Z,19382.3848
2023-05-10T11:01:35.700Z,19377.5391
2023-05-10T11:02:37.105Z,19373.6152
2023-05-10T11:03:38.400Z,19365.3848
2023-05-10T11:04:40.122Z,19362.5391
2023-05-10T11:05:41.527Z,19377.0000
2023-05-10T11:06:42.617Z,19394.5391
2023-05-10T11:07:44.413Z,19395.0000
2023-05-10T11:08:45.746Z,19386.6152
2023-05-10T11:09:48.166Z,19379.0762
2023-05-10T11:10:48.642Z,19362.5391
2023-05-10T11:11:50.230Z,19364.4609
2023-05-10T11:12:51.142Z,19368.6152
2023-05-10T11:13:52.663Z,19381.4609
2023-05-10T11:14:54.038Z,19385.0000
2023-05-10T11:15:55.528Z,19379.0762
2023-05-10T11:16:56.924Z,19365.7695
2023-05-10T11:17:58.340Z,19355.0000
2023-05-10T11:18:59.771Z,19354.2305
2023-05-10T11:20:01.170Z,19381.5391
2023-05-10T11:21:02.664Z,19387.0000